createdAt,value
2022-08-19T04:28:27.185Z,11.40
2022-08-19T04:31:36.529Z,11.88
2022-08-19T04:35:02.372Z,11.75
2022-08-19T04:38:02.056Z,10.75
2022-08-19T04:41:23.322Z,10.63
2022-08-19T04:44:26.713Z,10.48
2022-08-19T04:47:46.968Z,10.35
2022-08-19T04:50:58.386Z,10.50
2022-08-19T04:54:02.966Z,10.52
2022-08-19T04:57:09.786Z,11.10
2022-08-19T05:00:13.709Z,11.23
2022-08-19T05:03:17.998Z,10.98
2022-08-19T05:06:22.600Z,10.10
2022-08-19T05:09:25.424Z,10.63
2022-08-19T05:12:29.899Z,10.57
2022-08-19T05:15:32.755Z,9.90
2022-08-19T05:18:53.961Z,10.55
2022-08-19T05:22:15.522Z,10.57
2022-08-19T05:25:20.883Z,10.73
2022-08-19T05:28:23.822Z,10.77
2022-08-19T05:31:26.431Z,9.80
2022-08-19T05:34:29.402Z,10.13
2022-08-19T05:37:32.017Z,10.20
2022-08-19T05:40:39.752Z,10.32
2022-08-19T05:43:42.286Z,10.27
2022-08-19T05:46:48.005Z,10.45
2022-08-19T05:49:53.669Z,10.13
2022-08-19T05:52:56.625Z,9.98
2022-08-19T05:55:59.315Z,9.55
2022-08-19T05:59:02.074Z,10.20
2022-08-19T06:02:06.317Z,9.65
2022-08-19T06:05:10.113Z,9.73
2022-08-19T06:08:12.677Z,9.05
2022-08-19T06:11:33.715Z,9.65
2022-08-19T06:14:40.144Z,8.95
2022-08-19T06:17:47.625Z,9.10
2022-08-19T06:20:55.807Z,8.77
2022-08-19T06:23:59.251Z,9.38
2022-08-19T06:27:02.056Z,9.27
2022-08-19T06:30:05.933Z,8.93
2022-08-19T06:33:08.455Z,8.55
2022-08-19T06:36:21.836Z,8.45
2022-08-19T06:39:34.207Z,8.02
2022-08-19T06:42:39.319Z,8.40
2022-08-19T06:45:45.790Z,8.15
2022-08-19T06:48:50.979Z,8.25
2022-08-19T06:51:53.502Z,8.57
2022-08-19T06:54:59.734Z,8.35
2022-08-19T06:58:04.748Z,8.15
2022-08-19T07:01:09.215Z,8.80
2022-08-19T07:04:12.088Z,8.45
2022-08-19T07:07:20.183Z,8.30
2022-08-19T07:10:24.342Z,7.80
2022-08-19T07:13:28.645Z,8.10
2022-08-19T07:16:31.246Z,8.45
2022-08-19T07:19:34.884Z,8.10
2022-08-19T07:22:38.979Z,8.55
2022-08-19T07:25:42.569Z,8.55
2022-08-19T07:28:46.027Z,8.40
2022-08-19T07:31:57.341Z,8.07
2022-08-19T07:35:01.557Z,7.97
2022-08-19T07:38:04.815Z,7.85
2022-08-19T07:41:09.652Z,7.53
2022-08-19T07:44:13.541Z,7.70
2022-08-19T07:47:49.072Z,7.35
2022-08-19T07:50:39.537Z,7.93
2022-08-19T07:53:44.294Z,7.22
2022-08-19T07:56:47.265Z,7.07
2022-08-19T07:59:49.895Z,7.25
2022-08-19T08:02:55.676Z,7.12
2022-08-19T08:06:17.647Z,7.32
2022-08-19T08:09:41.675Z,6.93
2022-08-19T08:12:45.405Z,6.85
2022-08-19T08:16:10.244Z,6.80
2022-08-19T08:19:25.712Z,6.72
2022-08-19T08:22:47.076Z,6.75
2022-08-19T08:25:50.739Z,6.62
2022-08-19T08:28:54.198Z,6.95
2022-08-19T08:31:59.773Z,6.80
2022-08-19T08:35:02.967Z,6.82
2022-08-19T08:38:05.941Z,6.05
2022-08-19T08:41:32.585Z,6.80
2022-08-19T08:44:48.659Z,6.15
2022-08-19T08:47:54.843Z,5.95
2022-08-19T08:50:59.954Z,6.10
2022-08-19T08:54:07.712Z,5.72
2022-08-19T08:57:18.831Z,6.20
2022-08-19T09:00:30.415Z,6.03
2022-08-19T09:03:33.210Z,6.40
2022-08-19T09:06:41.920Z,6.20
2022-08-19T09:09:49.586Z,5.93
2022-08-19T09:13:09.477Z,6.00
2022-08-19T09:21:30.544Z,6.05
2022-08-19T09:24:36.808Z,6.20
2022-08-19T09:27:53.902Z,6.28
2022-08-19T09:30:56.777Z,6.12
2022-08-19T09:34:00.764Z,6.32
2022-08-19T09:37:04.456Z,6.07
2022-08-19T09:40:08.159Z,5.87
2022-08-19T09:43:14.521Z,6.47
2022-08-19T09:46:20.458Z,6.22
2022-08-19T09:49:26.807Z,6.32
2022-08-19T09:52:32.751Z,6.15
2022-08-19T09:55:43.126Z,5.80
2022-08-19T09:58:46.144Z,5.55
2022-08-19T10:01:49.203Z,6.00
2022-08-19T10:05:11.559Z,5.95
2022-08-19T10:08:14.176Z,5.70
2022-08-19T10:11:28.480Z,5.82
2022-08-19T10:14:40.018Z,5.57
2022-08-19T10:17:54.991Z,5.50
2022-08-19T10:21:27.352Z,6.78
2022-08-19T10:24:30.504Z,6.10
2022-08-19T10:27:33.178Z,5.80
2022-08-19T10:30:40.487Z,5.80
2022-08-19T10:33:54.124Z,5.55
2022-08-19T10:37:01.200Z,5.72
2022-08-19T10:40:08.635Z,5.87
2022-08-19T10:43:12.231Z,5.60
2022-08-19T10:46:17.002Z,5.60
2022-08-19T10:49:20.278Z,5.68
2022-08-19T10:52:34.797Z,5.90
2022-08-19T10:56:00.477Z,6.20
2022-08-19T10:59:04.156Z,5.80
2022-08-19T11:02:10.874Z,6.03
2022-08-19T11:05:15.795Z,6.05
2022-08-19T11:08:22.604Z,6.15
2022-08-19T11:11:28.059Z,5.87
2022-08-19T11:26:00.632Z,5.47
2022-08-19T11:29:05.218Z,5.75
2022-08-19T11:32:10.608Z,5.70
2022-08-19T11:35:13.519Z,5.47
2022-08-19T11:38:19.472Z,6.47
2022-08-19T11:41:24.443Z,6.80
2022-08-19T11:44:27.029Z,6.28
2022-08-19T11:47:31.522Z,5.87
2022-08-19T11:50:34.147Z,6.72
2022-08-19T11:53:38.586Z,6.75
2022-08-19T11:56:41.803Z,6.07
2022-08-19T11:59:50.404Z,5.62
2022-08-19T12:02:53.027Z,6.27
2022-08-19T12:05:56.098Z,6.57
2022-08-19T12:09:09.637Z,6.35
2022-08-19T12:12:12.474Z,6.62
2022-08-19T12:15:15.306Z,6.53
2022-08-19T12:18:18.140Z,9.02
2022-08-19T12:21:23.895Z,8.45
2022-08-19T12:24:26.782Z,8.43
2022-08-19T12:27:32.149Z,6.10
2022-08-19T12:30:43.886Z,6.53
2022-08-19T12:33:47.612Z,7.00
2022-08-19T12:36:50.829Z,7.05
2022-08-19T12:39:53.849Z,9.10
2022-08-19T12:42:56.699Z,13.07
2022-08-19T12:45:59.498Z,10.60
2022-08-19T12:49:05.159Z,10.05
2022-08-19T12:52:29.193Z,9.60
2022-08-19T12:55:32.394Z,10.27
2022-08-19T12:58:35.524Z,10.50
2022-08-19T13:01:39.046Z,10.38
2022-08-19T13:04:42.107Z,10.90
2022-08-19T13:07:45.242Z,11.80
2022-08-19T13:10:47.789Z,11.55
2022-08-19T13:13:52.569Z,12.25
2022-08-19T13:16:55.143Z,12.70
2022-08-19T13:19:58.120Z,12.52
2022-08-19T13:23:00.769Z,12.82
2022-08-19T13:26:06.116Z,14.05
2022-08-19T13:29:27.073Z,13.68
2022-08-19T13:32:49.088Z,13.05
2022-08-19T13:35:59.610Z,12.70
2022-08-19T13:39:02.406Z,12.18
2022-08-19T13:42:06.606Z,12.32
2022-08-19T13:45:10.691Z,11.93
2022-08-19T13:48:13.284Z,11.20
2022-08-19T13:51:17.783Z,7.18
2022-08-19T13:54:20.321Z,6.40
2022-08-19T13:57:23.502Z,6.00
2022-08-19T14:00:28.112Z,5.60
2022-08-19T14:03:32.732Z,5.40
2022-08-19T14:06:35.357Z,5.50
2022-08-19T14:09:38.269Z,6.95
2022-08-19T14:12:41.344Z,6.50
2022-08-19T14:15:44.378Z,6.80
2022-08-19T14:18:47.103Z,6.60
2022-08-19T14:21:49.930Z,7.50
2022-08-19T14:24:52.481Z,6.55
2022-08-19T14:27:56.896Z,6.50
2022-08-19T14:31:02.377Z,5.72
2022-08-19T14:34:06.168Z,6.40
2022-08-19T14:37:10.415Z,6.05
2022-08-19T14:40:22.810Z,5.43
2022-08-19T14:43:25.519Z,5.70
2022-08-19T14:46:29.726Z,4.95
2022-08-19T14:49:35.291Z,5.00
2022-08-19T14:52:48.804Z,5.97
2022-08-19T14:55:51.492Z,6.05
2022-08-19T14:59:00.300Z,5.37
